Time;durP1;ratioP1;P1;durP2;ratioP2;P2;SDS_P1;SDS_P2;PMS_P1;PMS_P2;Temp;Humidity;BMP_temperature;BMP_pressure;BME280_temperature;BME280_humidity;BME280_pressure;Samples;Min_cycle;Max_cycle;Signal;HPM_P1;HPM_P2
2021/09/06 00:00:19;;;;;;;17.00;11.48;;;27.50;94.40;;;;;;5063776;28;20032;-52
2021/09/06 00:02:46;;;;;;;17.38;10.90;;;27.40;94.40;;;;;;5063359;28;20013;-50
2021/09/06 00:05:13;;;;;;;16.17;10.00;;;27.40;94.30;;;;;;5063491;28;20044;-53
2021/09/06 00:07:45;;;;;;;11.05;8.05;;;27.40;94.30;;;;;;5063503;28;20039;-45
2021/09/06 00:10:20;;;;;;;20.00;8.38;;;27.40;94.30;;;;;;5063486;28;20071;-45
2021/09/06 00:12:48;;;;;;;9.32;6.35;;;27.40;94.20;;;;;;5063642;28;20013;-50
2021/09/06 00:15:15;;;;;;;8.93;6.57;;;27.40;94.20;;;;;;5063541;28;20021;-52
2021/09/06 00:17:41;;;;;;;10.90;6.05;;;27.40;94.20;;;;;;5067102;28;20021;-57
2021/09/06 00:20:08;;;;;;;7.85;4.95;;;27.40;94.20;;;;;;5067316;28;20044;-51
2021/09/06 00:22:35;;;;;;;7.70;4.93;;;27.40;94.20;;;;;;5066993;28;20027;-48
2021/09/06 00:25:02;;;;;;;10.18;4.05;;;27.40;94.10;;;;;;5067218;28;20029;-47
2021/09/06 00:27:28;;;;;;;8.27;3.83;;;27.30;94.00;;;;;;5066980;28;20052;-43
2021/09/06 00:29:55;;;;;;;6.85;3.65;;;27.20;94.00;;;;;;5067390;28;20112;-52
2021/09/06 00:32:22;;;;;;;6.28;4.00;;;27.20;94.00;;;;;;5067013;28;20041;-48
2021/09/06 00:34:48;;;;;;;11.15;3.97;;;27.00;94.10;;;;;;5066958;28;20025;-48
2021/09/06 00:37:15;;;;;;;10.63;4.15;;;27.00;94.40;;;;;;5066603;28;20131;-54
2021/09/06 00:39:42;;;;;;;11.88;4.00;;;26.90;94.20;;;;;;5066655;28;20033;-44
2021/09/06 00:42:09;;;;;;;12.68;4.00;;;26.90;94.30;;;;;;5066338;28;20013;-53
2021/09/06 00:44:35;;;;;;;8.27;3.95;;;26.90;94.30;;;;;;5066631;28;20062;-46
2021/09/06 00:47:03;;;;;;;9.43;4.00;;;26.80;94.30;;;;;;5066478;28;20024;-49
2021/09/06 00:49:30;;;;;;;7.50;3.95;;;26.80;94.30;;;;;;5066744;28;20205;-49
2021/09/06 00:51:57;;;;;;;7.88;4.28;;;26.70;94.30;;;;;;5066372;28;20023;-45
2021/09/06 00:54:25;;;;;;;9.20;3.75;;;26.70;94.30;;;;;;5066456;28;20043;-50
2021/09/06 00:56:53;;;;;;;8.63;3.90;;;26.60;94.20;;;;;;5066480;28;20082;-50
2021/09/06 00:59:19;;;;;;;8.27;4.10;;;26.60;94.20;;;;;;5065194;28;20217;-49
2021/09/06 01:01:46;;;;;;;10.00;4.28;;;26.60;94.10;;;;;;5066166;28;20021;-49
2021/09/06 01:04:13;;;;;;;7.53;3.90;;;26.50;94.20;;;;;;5066202;28;20021;-44
2021/09/06 01:06:39;;;;;;;7.75;3.90;;;26.50;94.20;;;;;;5066148;28;20028;-47
2021/09/06 01:09:06;;;;;;;10.70;3.83;;;26.50;94.10;;;;;;5066257;28;20012;-47
2021/09/06 01:11:33;;;;;;;9.70;3.92;;;26.60;94.00;;;;;;5065084;28;20225;-53
2021/09/06 01:14:00;;;;;;;13.57;10.43;;;26.60;94.00;;;;;;5066088;28;20103;-43
2021/09/06 01:16:27;;;;;;;17.58;11.40;;;26.60;93.90;;;;;;5066108;28;20056;-55
2021/09/06 01:18:54;;;;;;;22.17;14.00;;;26.70;94.00;;;;;;5066096;28;20101;-51
2021/09/06 01:21:20;;;;;;;12.43;8.13;;;26.60;93.90;;;;;;5066470;28;20206;-52
2021/09/06 01:23:47;;;;;;;10.05;7.10;;;26.70;93.80;;;;;;5065966;28;20032;-46
2021/09/06 01:26:14;;;;;;;9.82;5.78;;;26.70;94.10;;;;;;5066240;28;20221;-46
2021/09/06 01:28:40;;;;;;;8.85;4.35;;;26.70;94.10;;;;;;5064981;28;20021;-50
2021/09/06 01:31:10;;;;;;;9.13;4.72;;;26.80;94.10;;;;;;5065663;28;20036;-48
2021/09/06 01:33:37;;;;;;;8.95;4.72;;;26.80;94.20;;;;;;5065799;28;20017;-52
2021/09/06 01:36:04;;;;;;;8.90;4.70;;;26.80;94.30;;;;;;5066017;28;20079;-48
2021/09/06 01:38:34;;;;;;;10.15;4.40;;;26.80;94.40;;;;;;5065685;28;20021;-48
2021/09/06 01:41:01;;;;;;;8.18;4.45;;;26.80;94.40;;;;;;5066246;28;20048;-46
2021/09/06 01:43:28;;;;;;;19.38;10.07;;;26.80;94.60;;;;;;5065610;28;20100;-46
2021/09/06 01:45:55;;;;;;;21.55;14.55;;;26.80;94.50;;;;;;5065852;28;20047;-45
2021/09/06 01:48:22;;;;;;;32.67;22.77;;;26.70;94.50;;;;;;5065488;28;20040;-52
2021/09/06 01:50:48;;;;;;;32.45;21.25;;;26.80;94.40;;;;;;5057121;28;20282;-54
2021/09/06 01:53:15;;;;;;;24.27;14.63;;;26.70;94.70;;;;;;5046401;28;20080;-55
2021/09/06 01:55:44;;;;;;;17.50;11.68;;;26.80;94.80;;;;;;5054199;28;20051;-51
2021/09/06 01:58:11;;;;;;;19.05;11.88;;;26.80;94.80;;;;;;5050357;28;20058;-46
2021/09/06 02:00:38;;;;;;;14.90;11.23;;;26.70;94.90;;;;;;5045004;28;20021;-44
2021/09/06 02:03:05;;;;;;;17.02;11.50;;;26.70;94.90;;;;;;5045191;28;20264;-56
2021/09/06 02:05:32;;;;;;;22.60;10.70;;;26.70;95.00;;;;;;5045441;28;20093;-51
2021/09/06 02:07:59;;;;;;;16.20;9.25;;;26.60;95.10;;;;;;5045424;28;20017;-50
2021/09/06 02:10:26;;;;;;;17.00;9.25;;;26.60;95.00;;;;;;5045557;28;20101;-47
2021/09/06 02:12:52;;;;;;;19.73;13.27;;;26.70;95.10;;;;;;5043953;28;20048;-48
2021/09/06 02:15:19;;;;;;;17.05;11.70;;;26.70;94.90;;;;;;5045227;28;20093;-52
2021/09/06 02:17:46;;;;;;;23.70;13.85;;;26.70;94.90;;;;;;5045010;28;20026;-44
2021/09/06 02:20:13;;;;;;;22.35;14.65;;;26.70;94.70;;;;;;5045308;28;20093;-50
2021/09/06 02:22:40;;;;;;;20.45;13.55;;;26.80;94.80;;;;;;5045188;28;20080;-52
2021/09/06 02:25:07;;;;;;;15.38;9.63;;;26.80;94.70;;;;;;5045005;28;20040;-56
2021/09/06 02:27:34;;;;;;;12.00;8.75;;;26.80;94.60;;;;;;5044800;28;20248;-57
2021/09/06 02:30:01;;;;;;;14.77;10.10;;;26.80;94.50;;;;;;5044974;28;20033;-52
2021/09/06 02:32:34;;;;;;;15.02;11.60;;;26.70;94.50;;;;;;5043735;28;20027;-49
2021/09/06 02:35:00;;;;;;;16.25;10.88;;;26.80;94.60;;;;;;5044654;28;20401;-45
2021/09/06 02:37:27;;;;;;;18.33;11.43;;;26.80;94.50;;;;;;5059045;28;20264;-53
2021/09/06 02:39:54;;;;;;;17.75;10.00;;;26.80;94.60;;;;;;5065360;28;20031;-57
2021/09/06 02:42:21;;;;;;;13.30;9.10;;;26.80;94.50;;;;;;5044713;28;20067;-53
2021/09/06 02:44:48;;;;;;;22.60;11.90;;;26.70;94.60;;;;;;5045391;28;20026;-43
2021/09/06 02:47:14;;;;;;;15.68;11.50;;;26.70;94.60;;;;;;5044432;28;20025;-49
2021/09/06 02:49:41;;;;;;;16.27;8.77;;;26.80;94.50;;;;;;5044905;28;20038;-47
2021/09/06 02:52:08;;;;;;;11.35;7.25;;;26.80;94.40;;;;;;5044794;28;20014;-57
2021/09/06 02:54:35;;;;;;;12.75;6.45;;;26.80;94.40;;;;;;5044891;28;20032;-57
2021/09/06 02:57:08;;;;;;;14.25;5.63;;;26.70;94.10;;;;;;5044615;28;20017;-45
2021/09/06 02:59:37;;;;;;;13.35;5.15;;;26.70;94.10;;;;;;5043834;28;20025;-50
2021/09/06 03:02:05;;;;;;;8.48;4.28;;;26.70;93.80;;;;;;5044520;28;20096;-50
2021/09/06 03:04:31;;;;;;;11.35;5.50;;;26.70;93.80;;;;;;5044636;28;20021;-46
2021/09/06 03:06:59;;;;;;;7.18;5.10;;;26.70;93.80;;;;;;5044100;28;20213;-50
2021/09/06 03:09:25;;;;;;;7.85;4.38;;;26.70;93.60;;;;;;5045214;28;20121;-52
2021/09/06 03:12:13;;;;;;;6.32;3.88;;;26.70;93.50;;;;;;5043404;28;20033;-57
2021/09/06 03:14:39;;;;;;;7.13;4.15;;;26.80;93.60;;;;;;5045992;28;20084;-48
2021/09/06 03:17:09;;;;;;;9.68;3.95;;;26.80;93.30;;;;;;5043203;28;20073;-50
2021/09/06 03:19:55;;;;;;;10.82;3.80;;;26.80;93.20;;;;;;5044669;28;20053;-51
2021/09/06 03:22:30;;;;;;;5.95;3.53;;;26.80;93.40;;;;;;5044199;28;20029;-50
2021/09/06 03:24:56;;;;;;;11.00;4.28;;;26.80;93.10;;;;;;5043770;28;20056;-47
2021/09/06 03:27:23;;;;;;;8.73;3.72;;;26.80;93.30;;;;;;5043928;28;20025;-45
2021/09/06 03:29:50;;;;;;;8.60;3.40;;;26.80;93.20;;;;;;5044093;28;20033;-51
2021/09/06 03:32:16;;;;;;;8.35;4.35;;;26.80;93.20;;;;;;5043638;28;20025;-54
2021/09/06 03:34:43;;;;;;;16.33;9.70;;;26.80;93.20;;;;;;5043980;28;20081;-53
2021/09/06 03:37:10;;;;;;;17.02;14.35;;;26.80;93.20;;;;;;5043740;28;20025;-46
2021/09/06 03:39:36;;;;;;;18.95;9.85;;;26.80;93.30;;;;;;5050816;28;20029;-49
2021/09/06 03:42:03;;;;;;;16.33;8.82;;;26.80;93.50;;;;;;5049580;28;20088;-49
2021/09/06 03:44:30;;;;;;;12.02;8.48;;;26.80;93.50;;;;;;5043533;28;20108;-47
2021/09/06 03:46:59;;;;;;;10.60;7.57;;;26.80;93.40;;;;;;5043529;28;20025;-51
2021/09/06 03:49:26;;;;;;;12.77;5.82;;;26.80;93.60;;;;;;5043768;28;20021;-59
2021/09/06 03:51:52;;;;;;;9.38;5.95;;;26.70;93.50;;;;;;5046860;28;20013;-49
2021/09/06 03:54:25;;;;;;;9.70;5.35;;;26.70;93.60;;;;;;5047660;28;20217;-51
2021/09/06 03:56:51;;;;;;;;;;;26.70;93.60;;;;;;5048088;28;20056;-49
2021/09/06 03:59:18;;;;;;;19.20;5.10;;;26.70;93.50;;;;;;5057669;28;19916;-52
2021/09/06 04:01:45;;;;;;;35.95;6.28;;;26.70;93.60;;;;;;5043928;28;20074;-51
2021/09/06 04:04:12;;;;;;;19.42;5.43;;;26.70;93.70;;;;;;5057645;28;20048;-56
2021/09/06 04:06:39;;;;;;;28.00;4.90;;;26.70;93.70;;;;;;5067510;28;20025;-47
2021/09/06 04:09:05;;;;;;;28.88;5.03;;;26.70;93.40;;;;;;5067277;28;20025;-46
2021/09/06 04:11:32;;;;;;;22.50;6.13;;;26.70;93.50;;;;;;5053679;28;20032;-53
2021/09/06 04:13:58;;;;;;;15.93;4.50;;;26.80;93.60;;;;;;5047365;28;20088;-51
2021/09/06 04:16:25;;;;;;;25.52;5.30;;;26.80;93.60;;;;;;5043277;28;20064;-47
2021/09/06 04:18:52;;;;;;;21.98;5.18;;;26.80;93.70;;;;;;5047224;28;20155;-44
2021/09/06 04:21:18;;;;;;;14.48;3.85;;;26.80;93.70;;;;;;5047122;28;20021;-51
2021/09/06 04:23:45;;;;;;;14.68;4.20;;;26.80;93.70;;;;;;5050040;28;20071;-50
2021/09/06 04:26:11;;;;;;;11.02;4.00;;;26.70;93.90;;;;;;5046803;28;20021;-52
2021/09/06 04:28:38;;;;;;;15.23;4.30;;;26.80;93.90;;;;;;5045754;28;20025;-48
2021/09/06 04:31:05;;;;;;;10.40;4.15;;;26.80;94.00;;;;;;5046260;28;20227;-50
2021/09/06 04:33:31;;;;;;;13.95;3.80;;;26.70;94.20;;;;;;5057172;28;20022;-58
2021/09/06 04:35:58;;;;;;;10.48;3.58;;;26.70;94.20;;;;;;5055479;28;20359;-48
2021/09/06 04:38:24;;;;;;;8.98;3.50;;;26.70;94.40;;;;;;5064488;28;20546;-46
2021/09/06 04:40:51;;;;;;;9.05;3.60;;;26.70;94.40;;;;;;5048305;28;20043;-53
2021/09/06 04:43:18;;;;;;;10.55;3.80;;;26.70;94.30;;;;;;5052446;28;20031;-47
2021/09/06 04:45:44;;;;;;;11.18;4.60;;;26.70;94.20;;;;;;5056272;28;20020;-51
2021/09/06 04:48:11;;;;;;;16.65;5.82;;;26.70;94.40;;;;;;5057669;28;20036;-49
2021/09/06 04:50:37;;;;;;;13.55;5.78;;;26.70;94.40;;;;;;5057174;28;20013;-50
2021/09/06 04:53:04;;;;;;;12.70;5.15;;;26.70;94.50;;;;;;5065315;28;20033;-48
2021/09/06 04:55:30;;;;;;;9.73;5.70;;;26.70;94.50;;;;;;5050659;28;20017;-50
2021/09/06 04:57:57;;;;;;;12.93;5.25;;;26.70;94.60;;;;;;5054987;28;20048;-47
2021/09/06 05:00:24;;;;;;;10.13;4.95;;;26.70;94.50;;;;;;5066158;28;20016;-49
2021/09/06 05:02:50;;;;;;;9.85;6.28;;;26.70;94.50;;;;;;5065341;28;20143;-50
2021/09/06 05:05:17;;;;;;;14.43;6.18;;;26.70;94.40;;;;;;5066322;28;20013;-47
2021/09/06 05:07:44;;;;;;;12.40;6.32;;;26.80;94.40;;;;;;5066682;28;20359;-53
2021/09/06 05:10:10;;;;;;;11.75;5.20;;;26.80;94.50;;;;;;5066143;28;20043;-48
2021/09/06 05:12:37;;;;;;;10.75;5.03;;;26.80;94.50;;;;;;5066542;28;20032;-47
2021/09/06 05:15:04;;;;;;;9.23;4.95;;;26.80;94.40;;;;;;5066026;28;20009;-50
2021/09/06 05:17:30;;;;;;;7.10;4.43;;;26.70;94.30;;;;;;5066268;28;20270;-50
2021/09/06 05:19:57;;;;;;;9.05;4.00;;;26.70;94.30;;;;;;5066211;28;20029;-47
2021/09/06 05:22:24;;;;;;;8.30;3.60;;;26.70;94.20;;;;;;5066298;28;20217;-51
2021/09/06 05:24:54;;;;;;;10.65;3.58;;;26.70;94.60;;;;;;5066148;28;20017;-49
2021/09/06 05:27:22;;;;;;;11.52;3.92;;;26.60;94.30;;;;;;5066233;28;20031;-45
2021/09/06 05:29:48;;;;;;;9.30;3.63;;;26.70;94.30;;;;;;5065878;28;20020;-48
2021/09/06 05:32:15;;;;;;;9.05;3.75;;;26.70;94.30;;;;;;5066055;28;20035;-55
2021/09/06 05:34:42;;;;;;;9.98;3.45;;;26.70;94.20;;;;;;5065790;28;20092;-52
2021/09/06 05:37:08;;;;;;;7.45;3.20;;;26.70;94.20;;;;;;5066617;28;20216;-52
2021/09/06 05:39:35;;;;;;;11.02;4.07;;;26.60;94.00;;;;;;5065600;28;20017;-49
2021/09/06 05:42:02;;;;;;;9.57;3.72;;;26.70;94.10;;;;;;5065981;28;20105;-50
2021/09/06 05:44:29;;;;;;;9.15;3.30;;;26.60;94.00;;;;;;5064489;28;20190;-48
2021/09/06 05:46:56;;;;;;;8.63;3.58;;;26.60;93.90;;;;;;5065550;28;20028;-47
2021/09/06 05:49:23;;;;;;;10.02;5.18;;;26.60;93.90;;;;;;5065437;28;20056;-44
2021/09/06 05:51:49;;;;;;;12.57;4.93;;;26.60;93.80;;;;;;5065514;28;20028;-47
2021/09/06 05:54:16;;;;;;;11.00;4.93;;;26.60;93.90;;;;;;5065361;28;20380;-49
2021/09/06 05:56:42;;;;;;;15.30;6.32;;;26.60;93.90;;;;;;5065403;28;20322;-45
2021/09/06 05:59:09;;;;;;;24.38;14.32;;;26.60;93.90;;;;;;5065471;28;20043;-48
2021/09/06 06:01:35;;;;;;;16.45;9.45;;;26.60;93.80;;;;;;5065504;28;20029;-46
2021/09/06 06:04:02;;;;;;;11.32;6.18;;;26.60;93.80;;;;;;5063964;28;20251;-52
2021/09/06 06:06:29;;;;;;;11.73;5.60;;;26.60;93.80;;;;;;5065103;28;20033;-45
2021/09/06 06:08:56;;;;;;;9.90;5.25;;;26.60;93.70;;;;;;5065124;28;20013;-48
2021/09/06 06:11:23;;;;;;;12.57;5.68;;;26.60;93.70;;;;;;5064924;28;20012;-51
2021/09/06 06:13:49;;;;;;;11.02;5.35;;;26.60;93.70;;;;;;5064653;28;20017;-44
2021/09/06 06:16:16;;;;;;;9.70;5.45;;;26.60;93.70;;;;;;5064799;28;20057;-44
2021/09/06 06:18:42;;;;;;;11.00;5.20;;;26.60;93.80;;;;;;5064855;28;20025;-52
2021/09/06 06:21:09;;;;;;;11.77;4.47;;;26.50;93.90;;;;;;5064906;28;20017;-49
2021/09/06 06:23:36;;;;;;;8.60;4.55;;;26.60;93.90;;;;;;5064878;28;20032;-47
2021/09/06 06:26:02;;;;;;;10.57;4.22;;;26.60;93.80;;;;;;5064685;28;20020;-47
2021/09/06 06:28:29;;;;;;;11.38;4.50;;;26.60;93.80;;;;;;5064789;28;20082;-49
2021/09/06 06:30:56;;;;;;;8.63;4.20;;;26.60;93.80;;;;;;5064778;28;20016;-49
2021/09/06 06:33:22;;;;;;;6.65;4.15;;;26.50;93.80;;;;;;5065061;28;20080;-46
2021/09/06 06:35:49;;;;;;;11.98;3.63;;;26.60;93.80;;;;;;5064643;28;20036;-44
2021/09/06 06:38:15;;;;;;;11.25;4.43;;;26.50;93.80;;;;;;5065067;28;20025;-48
2021/09/06 06:40:42;;;;;;;8.63;3.65;;;26.50;93.70;;;;;;5064424;28;20021;-49
2021/09/06 06:43:09;;;;;;;7.20;3.25;;;26.50;93.70;;;;;;5064905;28;20024;-45
2021/09/06 06:45:35;;;;;;;8.50;3.47;;;26.50;93.60;;;;;;5064398;28;20104;-47
2021/09/06 06:48:02;;;;;;;9.30;3.70;;;26.50;93.60;;;;;;5064725;28;20017;-46
2021/09/06 06:50:28;;;;;;;8.35;3.60;;;26.50;93.60;;;;;;5064360;28;20028;-49
2021/09/06 06:52:55;;;;;;;10.73;3.97;;;26.50;93.60;;;;;;5064680;28;20161;-48
2021/09/06 06:55:22;;;;;;;9.95;3.75;;;26.50;93.70;;;;;;5064227;28;20037;-45
2021/09/06 06:57:48;;;;;;;12.85;4.75;;;26.50;93.90;;;;;;5064660;28;20060;-45
2021/09/06 07:00:15;;;;;;;13.32;4.60;;;26.50;94.10;;;;;;5064238;28;20104;-48
2021/09/06 07:02:42;;;;;;;9.40;4.95;;;26.50;94.20;;;;;;5064577;28;20301;-47
2021/09/06 07:05:10;;;;;;;10.27;4.95;;;26.50;94.40;;;;;;5064028;28;20078;-49
2021/09/06 07:07:37;;;;;;;8.48;4.32;;;26.50;94.50;;;;;;5064466;28;20200;-44
2021/09/06 07:10:04;;;;;;;10.57;5.18;;;26.50;94.40;;;;;;5064072;28;20023;-48
2021/09/06 07:12:30;;;;;;;8.70;4.80;;;26.50;94.60;;;;;;5064264;28;20052;-44
2021/09/06 07:14:57;;;;;;;16.15;6.32;;;26.50;94.70;;;;;;5064037;28;20023;-49
2021/09/06 07:17:23;;;;;;;15.30;5.78;;;26.50;94.90;;;;;;5064014;28;20272;-46
2021/09/06 07:19:50;;;;;;;11.60;5.65;;;26.50;94.90;;;;;;5063815;28;20313;-51
2021/09/06 07:22:17;;;;;;;13.40;5.28;;;26.60;94.90;;;;;;5064103;28;20033;-45
2021/09/06 07:24:44;;;;;;;9.88;5.00;;;26.50;94.90;;;;;;5063500;28;20221;-49
2021/09/06 07:27:10;;;;;;;10.85;5.05;;;26.50;95.00;;;;;;5063515;28;20068;-45
2021/09/06 07:29:37;;;;;;;11.68;5.05;;;26.60;95.00;;;;;;5063848;28;20336;-45
2021/09/06 07:32:04;;;;;;;8.07;4.45;;;26.60;95.00;;;;;;5064007;28;20407;-45
2021/09/06 07:34:35;;;;;;;10.35;4.43;;;26.50;95.20;;;;;;5063691;28;20024;-54
2021/09/06 07:37:09;;;;;;;11.00;4.65;;;26.60;94.90;;;;;;5063945;28;20033;-56
2021/09/06 07:39:38;;;;;;;9.07;4.25;;;26.50;94.70;;;;;;5063875;28;20208;-54
2021/09/06 07:42:05;;;;;;;11.05;4.55;;;26.50;94.70;;;;;;5063908;28;20378;-46
2021/09/06 07:44:32;;;;;;;8.52;4.10;;;26.50;94.80;;;;;;5064049;28;20083;-47
2021/09/06 07:46:58;;;;;;;12.63;4.40;;;26.50;94.80;;;;;;5063625;28;20036;-53
2021/09/06 07:49:25;;;;;;;6.85;4.03;;;26.50;94.90;;;;;;5063677;28;20036;-51
2021/09/06 07:51:53;;;;;;;8.25;4.35;;;26.50;94.90;;;;;;5063745;28;20017;-47
2021/09/06 07:54:25;;;;;;;10.80;4.38;;;26.50;94.90;;;;;;5063451;28;20213;-56
2021/09/06 07:56:54;;;;;;;7.72;3.80;;;26.50;94.90;;;;;;5063722;28;20029;-48
2021/09/06 07:59:22;;;;;;;7.40;3.97;;;26.50;94.90;;;;;;5063547;28;20036;-50
2021/09/06 08:01:48;;;;;;;6.30;3.95;;;26.50;94.80;;;;;;5063677;28;20029;-46
2021/09/06 08:04:15;;;;;;;6.00;3.90;;;26.50;94.80;;;;;;5063439;28;20020;-47
2021/09/06 08:06:42;;;;;;;6.47;4.45;;;26.50;94.70;;;;;;5063521;28;20055;-52
2021/09/06 08:09:08;;;;;;;9.40;4.25;;;26.50;94.70;;;;;;5063307;28;20024;-45
2021/09/06 08:11:35;;;;;;;9.68;4.15;;;26.50;94.70;;;;;;5063502;28;20025;-50
2021/09/06 08:14:01;;;;;;;6.00;3.72;;;26.50;94.60;;;;;;5063419;28;20021;-45
2021/09/06 08:16:28;;;;;;;5.40;4.00;;;26.50;94.70;;;;;;5063120;28;20060;-47
2021/09/06 08:18:54;;;;;;;5.05;4.00;;;26.50;94.60;;;;;;5063360;28;20045;-45
2021/09/06 08:21:21;;;;;;;8.95;3.65;;;26.50;94.60;;;;;;5062232;28;20029;-51
2021/09/06 08:23:48;;;;;;;4.53;3.60;;;26.50;94.60;;;;;;5063189;28;20020;-46
2021/09/06 08:26:14;;;;;;;6.57;3.60;;;26.50;94.60;;;;;;5063218;28;20111;-50
2021/09/06 08:28:41;;;;;;;6.63;3.97;;;26.40;94.50;;;;;;5063256;28;20024;-53
2021/09/06 08:31:08;;;;;;;5.38;3.53;;;26.40;94.40;;;;;;5063108;28;20027;-47
2021/09/06 08:33:34;;;;;;;6.18;3.55;;;26.40;94.30;;;;;;5063511;28;20044;-53
2021/09/06 08:36:01;;;;;;;10.60;3.35;;;26.40;94.30;;;;;;5063207;28;20055;-47
2021/09/06 08:38:28;;;;;;;6.97;3.40;;;26.40;94.20;;;;;;5067372;28;20104;-47
2021/09/06 08:40:55;;;;;;;5.93;3.75;;;26.30;94.20;;;;;;5066759;28;20333;-52
2021/09/06 08:43:22;;;;;;;7.30;3.30;;;26.30;94.10;;;;;;5067133;28;20029;-45
2021/09/06 08:45:48;;;;;;;7.03;3.63;;;26.30;94.10;;;;;;5066663;28;20086;-47
2021/09/06 08:48:17;;;;;;;6.15;3.50;;;26.30;94.20;;;;;;5066981;28;20092;-45
2021/09/06 08:50:44;;;;;;;7.68;3.30;;;26.30;94.20;;;;;;5066625;28;20021;-51
2021/09/06 08:53:10;;;;;;;8.80;3.83;;;26.30;94.30;;;;;;5067078;28;20029;-45
2021/09/06 08:55:41;;;;;;;11.23;3.88;;;26.30;94.30;;;;;;5066428;28;20124;-46
2021/09/06 08:58:08;;;;;;;7.00;3.63;;;26.30;94.40;;;;;;5066881;28;20035;-45
2021/09/06 09:00:34;;;;;;;12.35;3.60;;;26.30;94.60;;;;;;5066524;28;20043;-46
2021/09/06 09:03:01;;;;;;;10.95;3.63;;;26.30;94.40;;;;;;5066799;28;20020;-53
2021/09/06 09:05:28;;;;;;;9.43;3.78;;;26.30;94.40;;;;;;5066174;28;20021;-47
2021/09/06 09:07:58;;;;;;;10.50;3.60;;;26.30;94.40;;;;;;5066727;28;20028;-48
2021/09/06 09:10:30;;;;;;;6.85;3.47;;;26.30;94.40;;;;;;5066523;28;20025;-45
2021/09/06 09:13:10;;;;;;;6.65;3.50;;;26.30;94.40;;;;;;5066564;28;20029;-55
2021/09/06 09:15:37;;;;;;;7.55;3.65;;;26.30;94.40;;;;;;5065932;28;20044;-46
2021/09/06 09:18:09;;;;;;;6.22;3.38;;;26.30;94.40;;;;;;5066617;28;20024;-49
2021/09/06 09:20:43;;;;;;;7.03;3.83;;;26.30;94.50;;;;;;5066364;28;20074;-48
2021/09/06 09:23:11;;;;;;;7.78;3.40;;;26.30;94.40;;;;;;5066567;28;20025;-48
2021/09/06 09:25:37;;;;;;;5.55;3.60;;;26.30;94.50;;;;;;5065910;28;20063;-55
2021/09/06 09:28:04;;;;;;;5.53;3.60;;;26.30;94.50;;;;;;5066271;28;20028;-57
2021/09/06 09:30:33;;;;;;;6.45;3.30;;;26.30;94.50;;;;;;5065962;28;20017;-61
2021/09/06 09:33:14;;;;;;;9.88;3.88;;;26.30;94.50;;;;;;5066286;28;20062;-53
2021/09/06 09:35:41;;;;;;;7.18;3.60;;;26.30;94.50;;;;;;5065849;28;20024;-49
2021/09/06 09:38:10;;;;;;;7.00;3.65;;;26.30;94.60;;;;;;5066245;28;20051;-48
2021/09/06 09:40:42;;;;;;;7.88;3.60;;;26.30;94.60;;;;;;5065606;28;20045;-49
2021/09/06 09:43:10;;;;;;;9.88;4.00;;;26.30;94.70;;;;;;5066198;28;20029;-53
2021/09/06 09:45:37;;;;;;;6.65;3.70;;;26.30;94.70;;;;;;5065582;28;20021;-53
2021/09/06 09:48:05;;;;;;;11.60;4.10;;;26.30;94.80;;;;;;5065190;28;20017;-47
2021/09/06 09:50:35;;;;;;;6.05;3.53;;;26.30;94.90;;;;;;5065563;28;20013;-49
2021/09/06 09:53:02;;;;;;;6.32;3.97;;;26.20;94.80;;;;;;5066012;28;20025;-44
2021/09/06 09:55:34;;;;;;;7.57;4.20;;;26.30;94.90;;;;;;5065301;28;20025;-44
2021/09/06 09:58:01;;;;;;;8.10;4.45;;;26.30;94.90;;;;;;5065919;28;20021;-46
2021/09/06 10:00:28;;;;;;;6.80;3.90;;;26.30;95.00;;;;;;5065336;28;20313;-48
2021/09/06 10:02:58;;;;;;;13.57;4.60;;;26.20;95.00;;;;;;5065580;28;20253;-45
2021/09/06 10:05:29;;;;;;;9.90;4.43;;;26.30;95.00;;;;;;5065247;28;20197;-50
2021/09/06 10:07:56;;;;;;;5.30;3.60;;;26.30;95.00;;;;;;5065585;28;20025;-48
2021/09/06 10:10:27;;;;;;;9.02;4.07;;;26.30;95.00;;;;;;5065079;28;20013;-46
2021/09/06 10:13:03;;;;;;;9.07;4.28;;;26.30;95.00;;;;;;5065502;28;20215;-50
2021/09/06 10:15:30;;;;;;;6.03;4.10;;;26.20;95.00;;;;;;5064827;28;20247;-46
2021/09/06 10:17:57;;;;;;;7.82;3.80;;;26.20;95.10;;;;;;5065562;28;20032;-47
2021/09/06 10:20:25;;;;;;;6.78;3.85;;;26.20;95.10;;;;;;5065035;28;20099;-46
2021/09/06 10:23:06;;;;;;;9.38;4.35;;;26.20;95.10;;;;;;5065220;28;20078;-46
2021/09/06 10:25:35;;;;;;;10.48;4.13;;;26.20;95.20;;;;;;5064831;28;20306;-47
2021/09/06 10:28:04;;;;;;;10.00;4.38;;;26.20;95.30;;;;;;5065180;28;20289;-56
2021/09/06 10:30:51;;;;;;;8.93;4.38;;;26.20;95.30;;;;;;5064861;28;20017;-51
2021/09/06 10:33:30;;;;;;;9.10;4.18;;;26.20;95.30;;;;;;5065036;28;20091;-49
2021/09/06 10:36:20;;;;;;;5.68;3.92;;;26.20;95.20;;;;;;5064811;28;20031;-46
2021/09/06 10:39:05;;;;;;;7.07;3.90;;;26.20;95.20;;;;;;5064464;28;20032;-50
2021/09/06 10:41:44;;;;;;;12.07;5.43;;;26.30;95.20;;;;;;5064653;28;20209;-47
2021/09/06 10:44:11;;;;;;;20.30;6.68;;;26.30;95.30;;;;;;5064463;28;20028;-52
2021/09/06 10:46:38;;;;;;;33.75;8.80;;;26.20;95.20;;;;;;5064711;28;20020;-46
2021/09/06 10:49:06;;;;;;;29.73;8.05;;;26.20;95.30;;;;;;5064234;28;20025;-46
2021/09/06 10:51:35;;;;;;;22.33;7.43;;;26.20;95.40;;;;;;5064426;28;20298;-45
2021/09/06 10:54:06;;;;;;;34.40;9.02;;;26.10;95.40;;;;;;5064283;28;20029;-49
2021/09/06 10:56:33;;;;;;;23.35;8.13;;;26.20;95.50;;;;;;5064142;28;20036;-52
2021/09/06 10:59:00;;;;;;;17.42;6.90;;;26.10;95.40;;;;;;5064191;28;20025;-46
2021/09/06 11:01:26;;;;;;;18.10;6.43;;;26.10;95.20;;;;;;5063239;28;20027;-52
2021/09/06 11:03:54;;;;;;;17.23;6.28;;;26.10;95.10;;;;;;5064039;28;20028;-49
2021/09/06 11:06:24;;;;;;;13.25;5.75;;;26.10;95.20;;;;;;5063978;28;20138;-47
2021/09/06 11:08:52;;;;;;;12.20;5.68;;;26.10;95.20;;;;;;5064044;28;20058;-47
2021/09/06 11:11:19;;;;;;;15.75;6.20;;;26.10;95.20;;;;;;5063869;28;20020;-50
2021/09/06 11:13:47;;;;;;;19.52;7.00;;;26.10;95.20;;;;;;5064017;28;20025;-51
2021/09/06 11:16:17;;;;;;;14.07;6.40;;;26.10;95.20;;;;;;5063901;28;20055;-48
2021/09/06 11:18:51;;;;;;;13.38;6.82;;;26.10;95.20;;;;;;5063828;28;20056;-48
2021/09/06 11:21:21;;;;;;;14.55;7.55;;;26.10;95.30;;;;;;5063838;28;20016;-49
2021/09/06 11:23:49;;;;;;;10.13;6.03;;;26.10;95.30;;;;;;5063762;28;20025;-50
2021/09/06 11:26:31;;;;;;;9.93;5.57;;;26.10;95.30;;;;;;5063760;28;20072;-56
2021/09/06 11:28:59;;;;;;;11.20;5.10;;;26.00;95.30;;;;;;5063809;28;20020;-52
2021/09/06 11:31:27;;;;;;;7.70;4.72;;;26.00;95.20;;;;;;5063805;28;20028;-52
2021/09/06 11:34:04;;;;;;;6.75;4.00;;;26.00;95.30;;;;;;5063836;28;20248;-46
2021/09/06 11:36:31;;;;;;;7.95;4.03;;;26.00;95.40;;;;;;5063590;28;20055;-49
2021/09/06 11:39:00;;;;;;;8.23;4.30;;;26.00;95.40;;;;;;5063760;28;20164;-49
2021/09/06 11:41:27;;;;;;;10.10;4.80;;;26.00;95.40;;;;;;5063728;28;20205;-49
2021/09/06 11:43:55;;;;;;;8.32;4.38;;;26.00;95.50;;;;;;5063780;28;20031;-49
2021/09/06 11:46:22;;;;;;;9.15;5.00;;;26.00;95.40;;;;;;5063726;28;20306;-47
2021/09/06 11:48:50;;;;;;;10.73;4.85;;;26.00;95.50;;;;;;5063630;28;20190;-49
2021/09/06 11:51:17;;;;;;;12.07;5.00;;;26.00;95.60;;;;;;5061951;28;20051;-51
2021/09/06 11:53:59;;;;;;;7.72;4.57;;;26.00;95.50;;;;;;5063486;28;20021;-46
2021/09/06 11:56:27;;;;;;;10.48;4.18;;;26.00;95.40;;;;;;5063368;28;20052;-51
2021/09/06 11:58:59;;;;;;;8.88;4.47;;;26.10;95.40;;;;;;5063418;28;20032;-45
2021/09/06 12:01:25;;;;;;;9.68;4.85;;;26.00;95.40;;;;;;5063578;28;20088;-50
2021/09/06 12:04:03;;;;;;;7.72;4.15;;;26.00;95.50;;;;;;5063337;28;20029;-46
2021/09/06 12:06:30;;;;;;;7.82;4.50;;;26.00;95.50;;;;;;5063335;28;20049;-48
2021/09/06 12:08:58;;;;;;;7.72;4.47;;;26.00;95.60;;;;;;5053948;28;20017;-48
2021/09/06 12:11:35;;;;;;;8.75;4.07;;;26.00;95.50;;;;;;5047705;28;20245;-47
2021/09/06 12:14:03;;;;;;;6.25;3.95;;;26.10;95.50;;;;;;5046755;28;20040;-57
2021/09/06 12:16:31;;;;;;;6.25;4.40;;;26.10;95.50;;;;;;5046798;28;20053;-56
2021/09/06 12:18:59;;;;;;;8.07;4.93;;;26.10;95.50;;;;;;5047177;28;20022;-46
2021/09/06 12:21:27;;;;;;;9.13;4.57;;;26.10;95.50;;;;;;5046286;28;20064;-55
2021/09/06 12:24:01;;;;;;;6.88;4.45;;;26.10;95.60;;;;;;5048698;28;20092;-48
2021/09/06 12:26:44;;;;;;;6.40;3.90;;;26.10;95.60;;;;;;5046806;28;20037;-54
2021/09/06 12:29:14;;;;;;;7.55;4.30;;;26.10;95.70;;;;;;5049830;28;20090;-50
2021/09/06 12:31:43;;;;;;;11.27;4.57;;;26.10;95.70;;;;;;5053091;28;20321;-53
2021/09/06 12:34:14;;;;;;;6.65;4.35;;;26.10;95.80;;;;;;5047307;28;20021;-53
2021/09/06 12:36:44;;;;;;;5.22;4.22;;;26.10;95.70;;;;;;5046424;28;20030;-52
2021/09/06 12:39:11;;;;;;;7.40;4.38;;;26.20;95.70;;;;;;5047049;28;20328;-60
2021/09/06 12:41:37;;;;;;;6.32;4.40;;;26.20;95.70;;;;;;5046776;28;20092;-54
2021/09/06 12:44:07;;;;;;;5.32;3.85;;;26.20;95.70;;;;;;5047046;28;20029;-51